Nypd 316 — WDI5351 — position and weather

sailwx.info

Track history (hours):
 
Tides and Currents Weather Stations Pressure Air Temp Water Temp Dewpoint Dewpoint Depression Visibility Wind Speed Wind Dir Waves Ship Positions

Nypd 316

Owner: New York City Police Department, Brooklyn, NY. More information available from US FCC via Universal Licensing System.

Last reported at 2017-Nov-14 22:32 UTC. Time now 2017-Nov-19 10:47 UTC.
Position N 40°38' W 074°02'.

Length 11 m; draft 1 m.

Type: Law enforcement. MMSI: 367707670.

Date/timePositionNaut miles runAvg speedWind from/ knotsBaromVisibWave heightAir tempDewpointWater temp
2017-Nov-14 22:32N 40°38' W 074°02'113.9
2017-Nov-14 22:30N 40°38' W 074°03'6 1.0
2017-Nov-14 16:37N 40°34' W 073°56'1 8.1
2017-Nov-14 16:29N 40°34' W 073°58'4 8.3
2017-Nov-14 15:59N 40°36' W 074°02'3 5.4
2017-Nov-14 15:31N 40°39' W 074°02'0 0.0
2017-Nov-14 00:20N 40°39' W 074°02'515.7
2017-Nov-14 00:01N 40°43' W 073°58'510.0
2017-Nov-13 23:29N 40°48' W 073°56'613.4
2017-Nov-13 23:00N 40°43' W 073°60'4 0.2
2017-Nov-12 22:42N 40°39' W 074°02'2 8.7
2017-Nov-12 22:30N 40°37' W 074°03'4 7.0
2017-Nov-12 22:00N 40°34' W 074°00'3 4.1
2017-Nov-12 21:13N 40°35' W 073°56'0 0.0
2017-Nov-12 21:00N 40°35' W 073°56'1 2.4
2017-Nov-12 20:28N 40°34' W 073°55'3 5.2
2017-Nov-12 19:59N 40°37' W 073°53'4 2.0
2017-Nov-12 18:10N 40°38' W 073°49'3 7.7
2017-Nov-12 17:46N 40°35' W 073°50'2 9.1
2017-Nov-12 17:30N 40°34' W 073°53'510.7
2017-Nov-12 17:00N 40°34' W 074°00'5 9.7
2017-Nov-12 16:31N 40°39' W 074°02'0 0.0
2017-Nov-12 13:06N 40°39' W 074°02'113.1
2017-Nov-12 13:01N 40°38' W 074°03'1 1.5
2017-Nov-12 12:30N 40°38' W 074°04'0 0.5
2017-Nov-12 12:00N 40°38' W 074°04'0 0.3
2017-Nov-12 11:30N 40°38' W 074°04'0 0.3
2017-Nov-12 11:00N 40°38' W 074°04'0 0.3
2017-Nov-12 10:30N 40°38' W 074°04'0 0.2
2017-Nov-12 10:00N 40°38' W 074°04'0 0.3
2017-Nov-12 09:30N 40°38' W 074°04'0 0.0
2017-Nov-12 09:00N 40°38' W 074°04'0 0.2
2017-Nov-12 08:30N 40°38' W 074°04'0 0.2
2017-Nov-12 08:00N 40°38' W 074°04'0 0.3
2017-Nov-12 07:30N 40°38' W 074°04'0 0.2
2017-Nov-12 07:00N 40°38' W 074°04'0 0.1
2017-Nov-12 06:30N 40°38' W 074°04'0 0.1
2017-Nov-12 06:00N 40°38' W 074°04'0 0.2
2017-Nov-12 05:30N 40°38' W 074°04'0 0.2
2017-Nov-12 05:00N 40°38' W 074°04'2 1.1
2017-Nov-12 02:49N 40°39' W 074°02'411.7
2017-Nov-12 02:30N 40°43' W 073°59'1 2.5
2017-Nov-12 02:00N 40°42' W 074°01'  
Track history (hours):
 
Tides and Currents Weather Stations Pressure Air Temp Water Temp Dewpoint Dewpoint Depression Visibility Wind Speed Wind Dir Waves Ship Positions

Nypd 316

Owner: New York City Police Department, Brooklyn, NY. More information available from US FCC via Universal Licensing System.

Last reported at 2017-Nov-14 22:32 UTC. Time now 2017-Nov-19 10:47 UTC.
Position N 40°38' W 074°02'.

Length 11 m; draft 1 m.

Type: Law enforcement. MMSI: 367707670.

Date/timePositionNaut miles runAvg speedWind from/ knotsBaromVisibWave heightAir tempDewpointWater temp
2017-Nov-14 22:32N 40°38' W 074°02'113.9
2017-Nov-14 22:30N 40°38' W 074°03'6 1.0
2017-Nov-14 16:37N 40°34' W 073°56'1 8.1
2017-Nov-14 16:29N 40°34' W 073°58'4 8.3
2017-Nov-14 15:59N 40°36' W 074°02'3 5.4
2017-Nov-14 15:31N 40°39' W 074°02'0 0.0
2017-Nov-14 00:20N 40°39' W 074°02'515.7
2017-Nov-14 00:01N 40°43' W 073°58'510.0
2017-Nov-13 23:29N 40°48' W 073°56'613.4
2017-Nov-13 23:00N 40°43' W 073°60'4 0.2
2017-Nov-12 22:42N 40°39' W 074°02'2 8.7
2017-Nov-12 22:30N 40°37' W 074°03'4 7.0
2017-Nov-12 22:00N 40°34' W 074°00'3 4.1
2017-Nov-12 21:13N 40°35' W 073°56'0 0.0
2017-Nov-12 21:00N 40°35' W 073°56'1 2.4
2017-Nov-12 20:28N 40°34' W 073°55'3 5.2
2017-Nov-12 19:59N 40°37' W 073°53'4 2.0
2017-Nov-12 18:10N 40°38' W 073°49'3 7.7
2017-Nov-12 17:46N 40°35' W 073°50'2 9.1
2017-Nov-12 17:30N 40°34' W 073°53'510.7
2017-Nov-12 17:00N 40°34' W 074°00'5 9.7
2017-Nov-12 16:31N 40°39' W 074°02'0 0.0
2017-Nov-12 13:06N 40°39' W 074°02'113.1
2017-Nov-12 13:01N 40°38' W 074°03'1 1.5
2017-Nov-12 12:30N 40°38' W 074°04'0 0.5
2017-Nov-12 12:00N 40°38' W 074°04'0 0.3
2017-Nov-12 11:30N 40°38' W 074°04'0 0.3
2017-Nov-12 11:00N 40°38' W 074°04'0 0.3
2017-Nov-12 10:30N 40°38' W 074°04'0 0.2
2017-Nov-12 10:00N 40°38' W 074°04'0 0.3
2017-Nov-12 09:30N 40°38' W 074°04'0 0.0
2017-Nov-12 09:00N 40°38' W 074°04'0 0.2
2017-Nov-12 08:30N 40°38' W 074°04'0 0.2
2017-Nov-12 08:00N 40°38' W 074°04'0 0.3
2017-Nov-12 07:30N 40°38' W 074°04'0 0.2
2017-Nov-12 07:00N 40°38' W 074°04'0 0.1
2017-Nov-12 06:30N 40°38' W 074°04'0 0.1
2017-Nov-12 06:00N 40°38' W 074°04'0 0.2
2017-Nov-12 05:30N 40°38' W 074°04'0 0.2
2017-Nov-12 05:00N 40°38' W 074°04'2 1.1
2017-Nov-12 02:49N 40°39' W 074°02'411.7
2017-Nov-12 02:30N 40°43' W 073°59'1 2.5
2017-Nov-12 02:00N 40°42' W 074°01'  

Dump ship's entire track history